createdAt,value
2022-10-15T00:00:28.923Z,16
2022-10-15T00:03:54.193Z,15.99
2022-10-15T00:07:19.318Z,16
2022-10-15T00:10:44.535Z,16.02
2022-10-15T00:14:09.713Z,15.99
2022-10-15T00:17:34.879Z,16.02
2022-10-15T00:21:00.049Z,16.030001
2022-10-15T00:24:25.232Z,16.02
2022-10-15T00:27:50.451Z,16
2022-10-15T00:31:15.599Z,16.01
2022-10-15T00:34:40.791Z,16.040001
2022-10-15T00:38:05.984Z,16.040001
2022-10-15T00:41:31.177Z,15.99
2022-10-15T00:44:56.396Z,15.97
2022-10-15T00:48:21.530Z,15.97
2022-10-15T00:51:46.698Z,15.93
2022-10-15T00:55:11.871Z,15.92
2022-10-15T00:58:37.050Z,15.89
2022-10-15T01:02:02.236Z,15.85
2022-10-15T01:05:27.394Z,15.89
2022-10-15T01:08:52.574Z,15.9
2022-10-15T01:12:17.750Z,15.9
2022-10-15T01:15:42.923Z,15.91
2022-10-15T01:19:08.111Z,15.9
2022-10-15T01:22:33.256Z,15.86
2022-10-15T01:25:58.424Z,15.84
2022-10-15T01:29:23.593Z,15.82
2022-10-15T01:32:48.775Z,15.83
2022-10-15T01:36:13.949Z,15.86
2022-10-15T01:39:39.125Z,15.92
2022-10-15T01:43:04.311Z,15.93
2022-10-15T01:46:29.474Z,15.92
2022-10-15T01:49:55.203Z,15.9
2022-10-15T01:53:20.428Z,15.92
2022-10-15T01:56:45.590Z,15.94
2022-10-15T02:00:10.789Z,15.97
2022-10-15T02:03:35.957Z,15.99
2022-10-15T02:07:01.129Z,15.97
2022-10-15T02:10:26.317Z,15.98
2022-10-15T02:13:51.488Z,15.99
2022-10-15T02:17:16.704Z,16.040001
2022-10-15T02:20:41.866Z,16.049999
2022-10-15T02:24:07.040Z,16.059999
2022-10-15T02:27:32.248Z,16.059999
2022-10-15T02:30:57.394Z,16.049999
2022-10-15T02:34:22.607Z,16.01
2022-10-15T02:37:47.791Z,15.99
2022-10-15T02:41:12.993Z,15.98
2022-10-15T02:44:38.170Z,16.01
2022-10-15T02:48:03.297Z,16.02
2022-10-15T02:51:28.496Z,16.049999
2022-10-15T02:54:53.665Z,16.08
2022-10-15T02:58:18.833Z,16.110001
2022-10-15T03:01:44.038Z,16.139999
2022-10-15T03:05:09.158Z,16.17
2022-10-15T03:08:36.613Z,16.190001
2022-10-15T03:12:01.792Z,16.209999
2022-10-15T03:15:26.920Z,16.209999
2022-10-15T03:18:52.105Z,16.23
2022-10-15T03:22:17.250Z,16.26
2022-10-15T03:25:42.439Z,16.27
2022-10-15T03:29:07.612Z,16.280001
2022-10-15T03:32:34.149Z,16.299999
2022-10-15T03:35:58.034Z,16.299999
2022-10-15T03:39:23.202Z,16.309999
2022-10-15T03:42:48.395Z,16.32
2022-10-15T03:46:13.595Z,16.32
2022-10-15T03:49:38.785Z,16.299999
2022-10-15T03:53:03.994Z,16.309999
2022-10-15T03:56:29.151Z,16.299999
2022-10-15T03:59:54.334Z,16.32
2022-10-15T04:03:19.511Z,16.34
2022-10-15T04:06:44.685Z,16.35
2022-10-15T04:10:09.942Z,16.360001
2022-10-15T04:13:35.067Z,16.4
2022-10-15T04:17:00.247Z,16.389999
2022-10-15T04:20:25.449Z,16.4
2022-10-15T04:23:50.626Z,16.41
2022-10-15T04:30:40.996Z,16.43
2022-10-15T04:34:06.159Z,16.440001
2022-10-15T04:37:31.341Z,16.440001
2022-10-15T04:40:56.524Z,16.440001
2022-10-15T04:44:21.766Z,16.440001
2022-10-15T04:47:46.892Z,16.440001
2022-10-15T04:51:12.088Z,16.440001
2022-10-15T04:54:37.309Z,16.450001
2022-10-15T04:58:02.485Z,16.450001
2022-10-15T05:01:27.679Z,16.469999
2022-10-15T05:04:52.821Z,16.459999
2022-10-15T05:08:18.030Z,16.469999
2022-10-15T05:11:43.212Z,16.48
2022-10-15T05:15:08.391Z,16.48
2022-10-15T05:18:33.589Z,16.469999
2022-10-15T05:21:58.736Z,16.49
2022-10-15T05:25:23.934Z,16.48
2022-10-15T05:28:49.147Z,16.49
2022-10-15T05:32:14.305Z,16.49
2022-10-15T05:35:39.471Z,16.469999
2022-10-15T05:39:04.654Z,16.459999
2022-10-15T05:42:29.835Z,16.459999
2022-10-15T05:45:55.004Z,16.469999
2022-10-15T05:49:20.190Z,16.459999
2022-10-15T05:52:45.428Z,16.469999
2022-10-15T05:56:10.583Z,16.469999
2022-10-15T05:59:35.810Z,16.48
2022-10-15T06:03:01.006Z,16.49
2022-10-15T06:06:26.183Z,16.51
2022-10-15T06:09:51.497Z,16.49
2022-10-15T06:13:16.692Z,16.5
2022-10-15T06:16:41.862Z,16.49
2022-10-15T06:20:07.054Z,16.48
2022-10-15T06:23:32.209Z,16.49
2022-10-15T06:26:57.393Z,16.49
2022-10-15T06:30:22.589Z,16.49
2022-10-15T06:33:47.727Z,16.51
2022-10-15T06:37:12.904Z,16.549999
2022-10-15T06:40:38.047Z,16.549999
2022-10-15T06:44:03.234Z,16.559999
2022-10-15T06:47:28.435Z,16.559999
2022-10-15T06:50:53.686Z,16.559999
2022-10-15T06:54:18.889Z,16.559999
2022-10-15T06:57:44.172Z,16.59
2022-10-15T07:01:09.733Z,16.639999
2022-10-15T07:04:34.869Z,16.65
2022-10-15T07:08:00.025Z,16.68
2022-10-15T07:11:25.228Z,16.73
2022-10-15T07:14:50.418Z,16.77
2022-10-15T07:18:15.610Z,16.799999
2022-10-15T07:21:40.765Z,16.809999
2022-10-15T07:25:06.698Z,16.82
2022-10-15T07:28:31.959Z,16.799999
2022-10-15T07:31:57.215Z,16.809999
2022-10-15T07:35:22.427Z,16.83
2022-10-15T07:38:47.567Z,16.870001
2022-10-15T07:45:37.933Z,16.9
2022-10-15T07:49:03.096Z,16.92
2022-10-15T07:52:28.298Z,16.940001
2022-10-15T07:55:53.446Z,16.950001
2022-10-15T07:59:18.706Z,16.969999
2022-10-15T08:02:43.859Z,16.950001
2022-10-15T08:06:09.029Z,16.91
2022-10-15T08:09:34.276Z,16.93
2022-10-15T08:12:59.356Z,16.98
2022-10-15T08:16:24.513Z,17.02
2022-10-15T08:19:49.683Z,17.059999
2022-10-15T08:23:14.932Z,17.07
2022-10-15T08:26:40.162Z,17.1
2022-10-15T08:30:05.388Z,17.120001
2022-10-15T08:33:30.571Z,17.139999
2022-10-15T08:36:55.760Z,17.18
2022-10-15T08:40:20.934Z,17.16
2022-10-15T08:43:46.132Z,17.15
2022-10-15T08:47:11.269Z,17.16
2022-10-15T08:50:36.473Z,17.18
2022-10-15T08:54:01.645Z,17.17
2022-10-15T08:57:27.022Z,17.200001
2022-10-15T09:00:52.067Z,17.219999
2022-10-15T09:04:17.264Z,17.25
2022-10-15T09:07:42.400Z,17.290001
2022-10-15T09:11:07.600Z,17.33
2022-10-15T09:14:32.791Z,17.33
2022-10-15T09:17:57.979Z,17.299999
2022-10-15T09:21:23.132Z,17.26
2022-10-15T09:24:48.320Z,17.200001
2022-10-15T09:28:13.529Z,17.25
2022-10-15T09:31:38.691Z,17.299999
2022-10-15T09:35:03.901Z,17.4
2022-10-15T09:38:29.078Z,17.459999
2022-10-15T09:41:54.291Z,17.469999
2022-10-15T09:45:19.456Z,17.5
2022-10-15T09:48:44.618Z,17.559999
2022-10-15T09:52:09.815Z,17.639999
2022-10-15T09:55:34.955Z,17.73
2022-10-15T09:59:00.141Z,17.799999
2022-10-15T10:02:25.596Z,17.950001
2022-10-15T10:05:50.471Z,18.049999
2022-10-15T10:09:15.689Z,18.1
2022-10-15T10:12:40.828Z,18.15
2022-10-15T10:16:05.989Z,18.110001
2022-10-15T10:19:31.168Z,18.110001
2022-10-15T10:22:56.324Z,18.110001
2022-10-15T10:26:21.533Z,18.110001
2022-10-15T10:29:46.677Z,18.18
2022-10-15T10:33:11.867Z,18.280001
2022-10-15T10:36:38.251Z,18.34
2022-10-15T10:40:02.194Z,18.34
2022-10-15T10:43:27.400Z,18.26
2022-10-15T10:46:52.532Z,18.120001
2022-10-15T10:50:17.689Z,18.040001
2022-10-15T10:53:42.871Z,18
2022-10-15T10:57:08.031Z,17.92
2022-10-15T11:00:33.243Z,17.870001
2022-10-15T11:03:58.412Z,17.83
2022-10-15T11:07:23.764Z,17.889999
2022-10-15T11:10:48.669Z,17.969999
2022-10-15T11:14:52.238Z,18.1
2022-10-15T11:18:17.470Z,18.190001
2022-10-15T11:21:42.540Z,18.25
2022-10-15T11:25:07.804Z,18.280001
2022-10-15T11:28:32.880Z,18.290001
2022-10-15T11:32:02.571Z,18.35
2022-10-15T11:35:34.706Z,18.370001
2022-10-15T11:38:48.356Z,18.35
2022-10-15T11:42:13.505Z,18.33
2022-10-15T11:45:38.658Z,18.309999
2022-10-15T11:49:03.818Z,18.360001
2022-10-15T11:52:42.487Z,18.41
2022-10-15T11:56:13.119Z,18.389999
2022-10-15T11:59:38.279Z,18.42
2022-10-15T12:03:03.462Z,18.440001
2022-10-15T12:06:28.608Z,18.41
2022-10-15T12:09:53.790Z,18.370001
2022-10-15T12:13:18.908Z,18.4
2022-10-15T12:16:44.056Z,18.42
2022-10-15T12:20:09.222Z,18.43
2022-10-15T12:23:34.396Z,18.440001
2022-10-15T12:26:59.741Z,18.51
2022-10-15T12:30:24.878Z,18.540001
2022-10-15T12:33:50.053Z,18.610001
2022-10-15T12:37:15.280Z,18.700001
2022-10-15T12:40:40.481Z,18.709999
2022-10-15T12:44:05.694Z,18.719999
2022-10-15T12:47:30.862Z,18.66
2022-10-15T12:50:56.065Z,18.58
2022-10-15T12:54:21.224Z,18.57
2022-10-15T12:57:46.407Z,18.549999
2022-10-15T13:01:11.675Z,18.469999
2022-10-15T13:04:36.765Z,18.41
2022-10-15T13:08:01.941Z,18.379999
2022-10-15T13:11:27.131Z,18.33
2022-10-15T13:14:52.310Z,18.34
2022-10-15T13:18:17.531Z,18.389999
2022-10-15T13:21:42.808Z,18.43
2022-10-15T13:25:08.028Z,18.450001
2022-10-15T13:28:33.245Z,18.459999
2022-10-15T13:31:58.339Z,18.469999
2022-10-15T13:35:23.534Z,18.49
2022-10-15T13:38:48.693Z,18.5
2022-10-15T13:42:13.903Z,18.51
2022-10-15T13:45:39.113Z,18.540001
2022-10-15T13:49:04.352Z,18.549999
2022-10-15T13:52:29.596Z,18.6
2022-10-15T13:55:54.759Z,18.65
2022-10-15T13:59:19.981Z,18.65
2022-10-15T14:02:45.154Z,18.66
2022-10-15T14:06:10.419Z,18.639999
2022-10-15T14:09:35.762Z,18.65
2022-10-15T14:13:01.010Z,18.65
2022-10-15T14:16:29.451Z,18.629999
2022-10-15T14:20:08.225Z,18.59
2022-10-15T14:23:19.807Z,18.559999
2022-10-15T14:26:45.001Z,18.52
2022-10-15T15:03:13.058Z,15.95
2022-10-15T15:06:38.114Z,16.92
2022-10-15T15:10:03.301Z,17.17
2022-10-15T15:13:28.505Z,17.370001
2022-10-15T15:16:53.724Z,17.530001
2022-10-15T15:20:18.913Z,17.68
2022-10-15T15:23:44.063Z,17.790001
2022-10-15T15:27:09.229Z,17.860001
2022-10-15T15:30:34.405Z,17.93
2022-10-15T15:33:59.591Z,17.969999
2022-10-15T15:37:24.765Z,17.98
2022-10-15T15:40:49.916Z,17.99
2022-10-15T15:44:15.082Z,18
2022-10-15T15:47:40.235Z,18
2022-10-15T15:51:05.417Z,18
2022-10-15T15:54:30.622Z,18
2022-10-15T15:57:55.798Z,17.99
2022-10-15T16:01:21.153Z,17.959999
2022-10-15T16:04:46.163Z,17.91
2022-10-15T16:08:11.322Z,17.879999
2022-10-15T16:11:36.543Z,17.85
2022-10-15T16:15:01.776Z,17.860001
2022-10-15T16:18:26.896Z,17.83
2022-10-15T16:21:52.069Z,17.82
2022-10-15T16:25:17.219Z,17.83
2022-10-15T16:28:42.436Z,17.83
2022-10-15T16:32:07.537Z,17.83
2022-10-15T16:35:32.716Z,17.82
2022-10-15T16:38:57.912Z,17.780001
2022-10-15T16:42:23.074Z,17.75
2022-10-15T16:45:48.252Z,17.709999
2022-10-15T16:49:13.416Z,17.68
2022-10-15T16:52:38.564Z,17.639999
2022-10-15T16:56:03.723Z,17.59
2022-10-15T16:59:28.906Z,17.559999
2022-10-15T17:02:54.227Z,17.5
2022-10-15T17:06:19.284Z,17.469999
2022-10-15T17:09:44.490Z,17.49
2022-10-15T17:13:09.625Z,17.530001
2022-10-15T17:16:34.788Z,17.57
2022-10-15T17:19:59.980Z,17.58
2022-10-15T17:23:25.181Z,17.620001
2022-10-15T17:26:50.324Z,17.68
2022-10-15T17:30:15.502Z,17.709999
2022-10-15T17:33:40.702Z,17.709999
2022-10-15T17:37:05.893Z,17.719999
2022-10-15T17:40:31.139Z,17.709999
2022-10-15T17:43:56.240Z,17.68
2022-10-15T17:47:21.400Z,17.67
2022-10-15T17:50:46.592Z,17.65
2022-10-15T17:54:11.787Z,17.629999
2022-10-15T17:57:36.941Z,17.6
2022-10-15T18:01:02.120Z,17.58
2022-10-15T18:04:27.341Z,17.57
2022-10-15T18:07:52.539Z,17.58
2022-10-15T18:11:17.710Z,17.559999
2022-10-15T18:14:42.854Z,17.540001
2022-10-15T18:18:08.049Z,17.57
2022-10-15T18:21:33.219Z,17.540001
2022-10-15T18:24:58.395Z,17.5
2022-10-15T18:28:23.650Z,17.48
2022-10-15T18:31:51.217Z,17.450001
2022-10-15T18:35:13.896Z,17.42
2022-10-15T18:38:39.063Z,17.4
2022-10-15T18:42:04.258Z,17.4
2022-10-15T18:45:29.460Z,17.389999
2022-10-15T18:48:54.628Z,17.379999
2022-10-15T18:52:21.792Z,17.370001
2022-10-15T18:55:44.946Z,17.34
2022-10-15T18:59:10.110Z,17.32
2022-10-15T19:02:35.324Z,17.299999
2022-10-15T19:06:00.450Z,17.280001
2022-10-15T19:09:25.639Z,17.280001
2022-10-15T19:12:50.817Z,17.290001
2022-10-15T19:16:15.986Z,17.290001
2022-10-15T19:19:41.159Z,17.299999
2022-10-15T19:23:06.287Z,17.32
2022-10-15T19:26:31.527Z,17.35
2022-10-15T19:29:56.677Z,17.35
2022-10-15T19:33:21.861Z,17.34
2022-10-15T19:36:47.073Z,17.34
2022-10-15T19:40:12.212Z,17.35
2022-10-15T19:43:37.389Z,17.32
2022-10-15T19:47:02.588Z,17.34
2022-10-15T19:50:27.758Z,17.309999
2022-10-15T19:53:52.972Z,17.299999
2022-10-15T19:57:18.108Z,17.309999
2022-10-15T20:00:43.309Z,17.309999
2022-10-15T20:04:08.490Z,17.290001
2022-10-15T20:07:33.679Z,17.280001
2022-10-15T20:10:58.914Z,17.299999
2022-10-15T20:14:24.078Z,17.299999
2022-10-15T20:17:49.263Z,17.360001
2022-10-15T20:21:14.453Z,17.370001
2022-10-15T20:24:39.604Z,17.379999
2022-10-15T20:28:04.805Z,17.370001
2022-10-15T20:31:34.245Z,17.389999
2022-10-15T20:34:59.419Z,17.4
2022-10-15T20:38:24.605Z,17.440001
2022-10-15T20:41:49.783Z,17.469999
2022-10-15T20:45:14.995Z,17.48
2022-10-15T20:48:40.141Z,17.48
2022-10-15T20:52:05.318Z,17.49
2022-10-15T20:55:30.494Z,17.459999
2022-10-15T20:58:55.667Z,17.469999
2022-10-15T21:02:20.868Z,17.459999
2022-10-15T21:05:46.029Z,17.440001
2022-10-15T21:09:11.186Z,17.440001
2022-10-15T21:12:36.369Z,17.450001
2022-10-15T21:16:01.577Z,17.43
2022-10-15T21:19:26.771Z,17.43
2022-10-15T21:22:51.924Z,17.42
2022-10-15T21:26:17.100Z,17.379999
2022-10-15T21:29:42.292Z,17.42
2022-10-15T21:33:07.451Z,17.41
2022-10-15T21:36:32.655Z,17.389999
2022-10-15T21:39:57.838Z,17.379999
2022-10-15T21:43:23.008Z,17.370001
2022-10-15T21:46:48.173Z,17.360001
2022-10-15T21:50:13.309Z,17.35
2022-10-15T21:53:38.519Z,17.34
2022-10-15T21:57:03.665Z,17.309999
2022-10-15T22:00:28.811Z,17.290001
2022-10-15T22:03:53.977Z,17.280001
2022-10-15T22:07:19.158Z,17.280001
2022-10-15T22:10:44.371Z,17.27
2022-10-15T22:14:09.546Z,17.280001
2022-10-15T22:17:34.710Z,17.280001
2022-10-15T22:20:59.875Z,17.26
2022-10-15T22:24:25.036Z,17.26
2022-10-15T22:27:50.212Z,17.25
2022-10-15T22:31:15.372Z,17.24
2022-10-15T22:34:40.546Z,17.26
2022-10-15T22:38:05.714Z,17.280001
2022-10-15T22:41:30.916Z,17.280001
2022-10-15T22:44:56.111Z,17.25
2022-10-15T22:48:21.257Z,17.23
2022-10-15T22:51:46.417Z,17.23
2022-10-15T22:55:11.585Z,17.23
2022-10-15T22:58:36.758Z,17.26
2022-10-15T23:02:01.963Z,17.290001
2022-10-15T23:05:27.135Z,17.309999
2022-10-15T23:08:52.301Z,17.299999
2022-10-15T23:12:17.491Z,17.32
2022-10-15T23:15:42.669Z,17.299999
2022-10-15T23:19:07.856Z,17.290001
2022-10-15T23:22:33.011Z,17.290001
2022-10-15T23:25:58.172Z,17.309999
2022-10-15T23:29:23.349Z,17.309999
2022-10-15T23:32:48.534Z,17.309999
2022-10-15T23:36:13.746Z,17.299999
2022-10-15T23:39:38.848Z,17.290001
2022-10-15T23:43:04.008Z,17.27
2022-10-15T23:46:29.169Z,17.27
2022-10-15T23:49:54.351Z,17.290001
2022-10-15T23:53:19.539Z,17.299999
2022-10-15T23:56:44.657Z,17.290001
